sensor_id;sensor_type;location;lat;lon;timestamp;temperature;humidity
7307;DHT22;3694;48.732;9.248;2023-09-19T00:01:14;15.70;99.90
7307;DHT22;3694;48.732;9.248;2023-09-19T00:03:40;15.80;99.90
7307;DHT22;3694;48.732;9.248;2023-09-19T00:06:07;15.70;99.90
7307;DHT22;3694;48.732;9.248;2023-09-19T00:08:33;15.70;99.90
7307;DHT22;3694;48.732;9.248;2023-09-19T00:10:59;15.60;99.90
7307;DHT22;3694;48.732;9.248;2023-09-19T00:13:31;15.60;99.90
7307;DHT22;3694;48.732;9.248;2023-09-19T00:15:57;15.60;99.90
7307;DHT22;3694;48.732;9.248;2023-09-19T00:18:24;15.50;99.90
7307;DHT22;3694;48.732;9.248;2023-09-19T00:20:57;15.50;99.90
7307;DHT22;3694;48.732;9.248;2023-09-19T00:23:23;15.60;99.90
7307;DHT22;3694;48.732;9.248;2023-09-19T00:25:50;15.40;99.90
7307;DHT22;3694;48.732;9.248;2023-09-19T00:28:17;15.50;99.90
7307;DHT22;3694;48.732;9.248;2023-09-19T00:30:44;15.50;99.90
7307;DHT22;3694;48.732;9.248;2023-09-19T00:33:10;15.40;99.90
7307;DHT22;3694;48.732;9.248;2023-09-19T00:35:53;15.50;99.90
7307;DHT22;3694;48.732;9.248;2023-09-19T00:38:19;15.50;99.90
7307;DHT22;3694;48.732;9.248;2023-09-19T00:40:48;15.50;99.90
7307;DHT22;3694;48.732;9.248;2023-09-19T00:43:15;15.50;99.90
7307;DHT22;3694;48.732;9.248;2023-09-19T00:45:43;15.50;99.90
7307;DHT22;3694;48.732;9.248;2023-09-19T00:48:09;15.40;99.90
7307;DHT22;3694;48.732;9.248;2023-09-19T00:50:35;15.50;99.90
7307;DHT22;3694;48.732;9.248;2023-09-19T00:53:02;15.50;99.90
7307;DHT22;3694;48.732;9.248;2023-09-19T00:55:34;15.50;99.90
7307;DHT22;3694;48.732;9.248;2023-09-19T00:58:00;15.50;99.90
7307;DHT22;3694;48.732;9.248;2023-09-19T01:00:26;15.50;99.90
7307;DHT22;3694;48.732;9.248;2023-09-19T01:02:52;15.40;99.90
7307;DHT22;3694;48.732;9.248;2023-09-19T01:05:19;15.50;99.90
7307;DHT22;3694;48.732;9.248;2023-09-19T01:07:44;15.60;99.90
7307;DHT22;3694;48.732;9.248;2023-09-19T01:10:16;15.60;99.90
7307;DHT22;3694;48.732;9.248;2023-09-19T01:12:47;15.60;99.90
7307;DHT22;3694;48.732;9.248;2023-09-19T01:17:54;15.60;99.90
7307;DHT22;3694;48.732;9.248;2023-09-19T01:31:59;15.60;99.90
7307;DHT22;3694;48.732;9.248;2023-09-19T01:35:01;15.60;99.90
7307;DHT22;3694;48.732;9.248;2023-09-19T01:37:31;15.60;99.90
7307;DHT22;3694;48.732;9.248;2023-09-19T01:40:06;15.60;99.90
7307;DHT22;3694;48.732;9.248;2023-09-19T01:45:46;15.60;99.90
7307;DHT22;3694;48.732;9.248;2023-09-19T01:48:25;15.70;99.90
7307;DHT22;3694;48.732;9.248;2023-09-19T01:51:00;15.70;99.90
7307;DHT22;3694;48.732;9.248;2023-09-19T01:53:28;15.70;99.90
7307;DHT22;3694;48.732;9.248;2023-09-19T01:55:57;15.70;99.90
7307;DHT22;3694;48.732;9.248;2023-09-19T01:58:44;15.70;99.90
7307;DHT22;3694;48.732;9.248;2023-09-19T02:01:16;15.70;99.90
7307;DHT22;3694;48.732;9.248;2023-09-19T02:03:43;15.70;99.90
7307;DHT22;3694;48.732;9.248;2023-09-19T02:06:14;15.70;99.90
7307;DHT22;3694;48.732;9.248;2023-09-19T02:08:41;15.60;99.90
7307;DHT22;3694;48.732;9.248;2023-09-19T02:11:07;15.60;99.90
7307;DHT22;3694;48.732;9.248;2023-09-19T02:13:32;15.60;99.90
7307;DHT22;3694;48.732;9.248;2023-09-19T02:15:59;15.60;99.90
7307;DHT22;3694;48.732;9.248;2023-09-19T02:18:25;15.50;99.90
7307;DHT22;3694;48.732;9.248;2023-09-19T02:20:53;15.50;99.90
7307;DHT22;3694;48.732;9.248;2023-09-19T02:23:19;15.50;99.90
7307;DHT22;3694;48.732;9.248;2023-09-19T02:25:55;15.40;99.90
7307;DHT22;3694;48.732;9.248;2023-09-19T02:28:23;15.40;99.90
7307;DHT22;3694;48.732;9.248;2023-09-19T02:30:49;15.50;99.90
7307;DHT22;3694;48.732;9.248;2023-09-19T02:33:16;15.50;99.90
7307;DHT22;3694;48.732;9.248;2023-09-19T02:35:43;15.40;99.90
7307;DHT22;3694;48.732;9.248;2023-09-19T02:38:08;15.40;99.90
7307;DHT22;3694;48.732;9.248;2023-09-19T02:40:37;15.40;99.90
7307;DHT22;3694;48.732;9.248;2023-09-19T02:43:02;15.40;99.90
7307;DHT22;3694;48.732;9.248;2023-09-19T02:45:28;15.30;99.90
7307;DHT22;3694;48.732;9.248;2023-09-19T02:47:55;15.30;99.90
7307;DHT22;3694;48.732;9.248;2023-09-19T02:50:21;15.20;99.90
7307;DHT22;3694;48.732;9.248;2023-09-19T02:52:47;15.10;99.90
7307;DHT22;3694;48.732;9.248;2023-09-19T02:55:17;15.10;99.90
7307;DHT22;3694;48.732;9.248;2023-09-19T02:57:49;15.00;99.90
7307;DHT22;3694;48.732;9.248;2023-09-19T03:00:16;15.00;99.90
7307;DHT22;3694;48.732;9.248;2023-09-19T03:02:45;14.90;99.90
7307;DHT22;3694;48.732;9.248;2023-09-19T03:05:11;14.90;99.90
7307;DHT22;3694;48.732;9.248;2023-09-19T03:07:37;14.90;99.90
7307;DHT22;3694;48.732;9.248;2023-09-19T03:10:05;14.90;99.90
7307;DHT22;3694;48.732;9.248;2023-09-19T03:12:31;15.10;99.90
7307;DHT22;3694;48.732;9.248;2023-09-19T03:14:57;15.10;99.90
7307;DHT22;3694;48.732;9.248;2023-09-19T03:17:22;15.30;99.90
7307;DHT22;3694;48.732;9.248;2023-09-19T03:19:48;15.20;99.90
7307;DHT22;3694;48.732;9.248;2023-09-19T03:22:14;15.30;99.90
7307;DHT22;3694;48.732;9.248;2023-09-19T03:24:41;15.30;99.90
7307;DHT22;3694;48.732;9.248;2023-09-19T03:27:12;15.40;99.90
7307;DHT22;3694;48.732;9.248;2023-09-19T03:29:41;15.40;99.90
7307;DHT22;3694;48.732;9.248;2023-09-19T03:32:07;15.40;99.90
7307;DHT22;3694;48.732;9.248;2023-09-19T03:34:36;15.40;99.90
7307;DHT22;3694;48.732;9.248;2023-09-19T03:37:03;15.40;99.90
7307;DHT22;3694;48.732;9.248;2023-09-19T03:39:29;15.40;99.90
7307;DHT22;3694;48.732;9.248;2023-09-19T03:41:54;15.40;99.90
7307;DHT22;3694;48.732;9.248;2023-09-19T03:44:20;15.40;99.90
7307;DHT22;3694;48.732;9.248;2023-09-19T03:46:45;15.40;99.90
7307;DHT22;3694;48.732;9.248;2023-09-19T03:49:11;15.30;99.90
7307;DHT22;3694;48.732;9.248;2023-09-19T03:51:36;15.30;99.90
7307;DHT22;3694;48.732;9.248;2023-09-19T03:54:03;15.30;99.90
7307;DHT22;3694;48.732;9.248;2023-09-19T03:56:29;15.30;99.90
7307;DHT22;3694;48.732;9.248;2023-09-19T03:58:55;15.30;99.90
7307;DHT22;3694;48.732;9.248;2023-09-19T04:01:20;15.30;99.90
7307;DHT22;3694;48.732;9.248;2023-09-19T04:03:46;15.30;99.90
7307;DHT22;3694;48.732;9.248;2023-09-19T04:06:16;15.30;99.90
7307;DHT22;3694;48.732;9.248;2023-09-19T04:08:42;15.30;99.90
7307;DHT22;3694;48.732;9.248;2023-09-19T04:11:09;15.20;99.90
7307;DHT22;3694;48.732;9.248;2023-09-19T04:13:34;15.20;99.90
7307;DHT22;3694;48.732;9.248;2023-09-19T04:16:00;15.20;99.90
7307;DHT22;3694;48.732;9.248;2023-09-19T04:18:26;15.20;99.90
7307;DHT22;3694;48.732;9.248;2023-09-19T04:20:52;15.10;99.90
7307;DHT22;3694;48.732;9.248;2023-09-19T04:23:18;15.00;99.90
7307;DHT22;3694;48.732;9.248;2023-09-19T04:25:46;15.00;99.90
7307;DHT22;3694;48.732;9.248;2023-09-19T04:28:12;15.00;99.90
7307;DHT22;3694;48.732;9.248;2023-09-19T04:30:38;14.90;99.90
7307;DHT22;3694;48.732;9.248;2023-09-19T04:33:06;14.90;99.90
7307;DHT22;3694;48.732;9.248;2023-09-19T04:35:32;14.90;99.90
7307;DHT22;3694;48.732;9.248;2023-09-19T04:37:57;15.00;99.90
7307;DHT22;3694;48.732;9.248;2023-09-19T04:40:23;15.10;99.90
7307;DHT22;3694;48.732;9.248;2023-09-19T04:42:56;15.10;99.90
7307;DHT22;3694;48.732;9.248;2023-09-19T04:45:26;15.10;99.90
7307;DHT22;3694;48.732;9.248;2023-09-19T04:47:53;15.20;99.90
7307;DHT22;3694;48.732;9.248;2023-09-19T04:50:19;15.30;99.90
7307;DHT22;3694;48.732;9.248;2023-09-19T04:52:49;15.20;99.90
7307;DHT22;3694;48.732;9.248;2023-09-19T04:55:16;15.30;99.90
7307;DHT22;3694;48.732;9.248;2023-09-19T04:57:46;15.40;99.90
7307;DHT22;3694;48.732;9.248;2023-09-19T05:00:17;15.40;99.90
7307;DHT22;3694;48.732;9.248;2023-09-19T05:02:44;15.40;99.90
7307;DHT22;3694;48.732;9.248;2023-09-19T05:05:10;15.60;99.90
7307;DHT22;3694;48.732;9.248;2023-09-19T05:07:36;15.50;99.90
7307;DHT22;3694;48.732;9.248;2023-09-19T05:10:03;15.50;99.90
7307;DHT22;3694;48.732;9.248;2023-09-19T05:12:32;15.50;99.90
7307;DHT22;3694;48.732;9.248;2023-09-19T05:14:58;15.50;99.90
7307;DHT22;3694;48.732;9.248;2023-09-19T05:17:23;15.50;99.90
7307;DHT22;3694;48.732;9.248;2023-09-19T05:19:50;15.50;99.90
7307;DHT22;3694;48.732;9.248;2023-09-19T05:22:15;15.40;99.90
7307;DHT22;3694;48.732;9.248;2023-09-19T05:24:41;15.30;99.90
7307;DHT22;3694;48.732;9.248;2023-09-19T05:27:06;15.30;99.90
7307;DHT22;3694;48.732;9.248;2023-09-19T05:29:32;15.20;99.90
7307;DHT22;3694;48.732;9.248;2023-09-19T05:31:59;15.20;99.90
7307;DHT22;3694;48.732;9.248;2023-09-19T05:34:24;15.10;99.90
7307;DHT22;3694;48.732;9.248;2023-09-19T05:36:53;15.20;99.90
7307;DHT22;3694;48.732;9.248;2023-09-19T05:39:20;15.10;99.90
7307;DHT22;3694;48.732;9.248;2023-09-19T05:41:45;15.10;99.90
7307;DHT22;3694;48.732;9.248;2023-09-19T05:44:13;15.10;99.90
7307;DHT22;3694;48.732;9.248;2023-09-19T05:46:39;15.00;99.90
7307;DHT22;3694;48.732;9.248;2023-09-19T05:49:05;15.20;99.90
7307;DHT22;3694;48.732;9.248;2023-09-19T05:51:30;15.10;99.90
7307;DHT22;3694;48.732;9.248;2023-09-19T05:53:56;15.10;99.90
7307;DHT22;3694;48.732;9.248;2023-09-19T05:56:23;15.10;99.90
7307;DHT22;3694;48.732;9.248;2023-09-19T05:58:49;15.40;99.90
7307;DHT22;3694;48.732;9.248;2023-09-19T06:01:17;15.30;99.90
7307;DHT22;3694;48.732;9.248;2023-09-19T06:03:43;15.40;99.90
7307;DHT22;3694;48.732;9.248;2023-09-19T06:06:08;15.40;99.90
7307;DHT22;3694;48.732;9.248;2023-09-19T06:08:34;15.40;99.90
7307;DHT22;3694;48.732;9.248;2023-09-19T06:11:00;15.60;99.90
7307;DHT22;3694;48.732;9.248;2023-09-19T06:13:28;15.40;99.90
7307;DHT22;3694;48.732;9.248;2023-09-19T06:15:55;15.40;99.90
7307;DHT22;3694;48.732;9.248;2023-09-19T06:18:22;15.20;99.90
7307;DHT22;3694;48.732;9.248;2023-09-19T06:20:51;15.10;99.90
7307;DHT22;3694;48.732;9.248;2023-09-19T06:23:17;15.00;99.90
7307;DHT22;3694;48.732;9.248;2023-09-19T06:25:45;14.90;99.90
7307;DHT22;3694;48.732;9.248;2023-09-19T06:28:10;14.80;99.90
7307;DHT22;3694;48.732;9.248;2023-09-19T06:30:38;14.80;99.90
7307;DHT22;3694;48.732;9.248;2023-09-19T06:33:07;14.80;99.90
7307;DHT22;3694;48.732;9.248;2023-09-19T06:35:33;15.00;99.90
7307;DHT22;3694;48.732;9.248;2023-09-19T06:38:02;14.90;99.90
7307;DHT22;3694;48.732;9.248;2023-09-19T06:40:28;14.90;99.90
7307;DHT22;3694;48.732;9.248;2023-09-19T06:42:54;14.80;99.90
7307;DHT22;3694;48.732;9.248;2023-09-19T06:45:21;14.90;99.90
7307;DHT22;3694;48.732;9.248;2023-09-19T06:47:48;14.90;99.90
7307;DHT22;3694;48.732;9.248;2023-09-19T06:50:21;14.90;99.90
7307;DHT22;3694;48.732;9.248;2023-09-19T06:52:49;14.90;99.90
7307;DHT22;3694;48.732;9.248;2023-09-19T06:55:16;15.10;99.90
7307;DHT22;3694;48.732;9.248;2023-09-19T06:57:44;15.10;99.90
7307;DHT22;3694;48.732;9.248;2023-09-19T07:00:11;15.30;99.90
7307;DHT22;3694;48.732;9.248;2023-09-19T07:05:22;15.50;99.90
7307;DHT22;3694;48.732;9.248;2023-09-19T07:07:48;15.70;99.90
7307;DHT22;3694;48.732;9.248;2023-09-19T07:10:14;15.80;99.90
7307;DHT22;3694;48.732;9.248;2023-09-19T07:12:40;16.20;99.90
7307;DHT22;3694;48.732;9.248;2023-09-19T07:15:07;16.80;99.90
7307;DHT22;3694;48.732;9.248;2023-09-19T07:17:33;17.00;99.90
7307;DHT22;3694;48.732;9.248;2023-09-19T07:19:59;17.20;99.90
7307;DHT22;3694;48.732;9.248;2023-09-19T07:22:26;17.50;99.90
7307;DHT22;3694;48.732;9.248;2023-09-19T07:24:52;17.60;99.90
7307;DHT22;3694;48.732;9.248;2023-09-19T07:27:18;17.60;99.90
7307;DHT22;3694;48.732;9.248;2023-09-19T07:29:43;17.70;99.90
7307;DHT22;3694;48.732;9.248;2023-09-19T07:32:10;17.80;99.90
7307;DHT22;3694;48.732;9.248;2023-09-19T07:34:35;17.60;99.90
7307;DHT22;3694;48.732;9.248;2023-09-19T07:37:01;17.80;99.90
7307;DHT22;3694;48.732;9.248;2023-09-19T07:39:28;17.70;99.90
7307;DHT22;3694;48.732;9.248;2023-09-19T07:41:53;17.60;99.90
7307;DHT22;3694;48.732;9.248;2023-09-19T07:44:19;17.80;99.90
7307;DHT22;3694;48.732;9.248;2023-09-19T07:46:45;18.10;99.90
7307;DHT22;3694;48.732;9.248;2023-09-19T07:49:11;18.20;99.90
7307;DHT22;3694;48.732;9.248;2023-09-19T07:51:36;18.50;99.90
7307;DHT22;3694;48.732;9.248;2023-09-19T07:54:02;18.90;99.90
7307;DHT22;3694;48.732;9.248;2023-09-19T07:56:28;19.30;99.90
7307;DHT22;3694;48.732;9.248;2023-09-19T07:58:53;19.50;99.90
7307;DHT22;3694;48.732;9.248;2023-09-19T08:01:19;19.60;99.90
7307;DHT22;3694;48.732;9.248;2023-09-19T08:03:44;19.70;99.90
7307;DHT22;3694;48.732;9.248;2023-09-19T08:06:10;19.90;99.90
7307;DHT22;3694;48.732;9.248;2023-09-19T08:08:36;19.80;99.90
7307;DHT22;3694;48.732;9.248;2023-09-19T08:11:04;19.70;99.90
7307;DHT22;3694;48.732;9.248;2023-09-19T08:13:37;19.70;99.90
7307;DHT22;3694;48.732;9.248;2023-09-19T08:16:04;19.80;99.90
7307;DHT22;3694;48.732;9.248;2023-09-19T08:18:30;19.80;99.90
7307;DHT22;3694;48.732;9.248;2023-09-19T08:20:58;20.00;99.90
7307;DHT22;3694;48.732;9.248;2023-09-19T08:23:26;20.40;99.90
7307;DHT22;3694;48.732;9.248;2023-09-19T08:25:56;20.70;99.90
7307;DHT22;3694;48.732;9.248;2023-09-19T08:28:22;21.10;99.90
7307;DHT22;3694;48.732;9.248;2023-09-19T08:30:50;21.30;99.90
7307;DHT22;3694;48.732;9.248;2023-09-19T08:33:16;21.40;99.90
7307;DHT22;3694;48.732;9.248;2023-09-19T08:35:42;21.40;99.90
7307;DHT22;3694;48.732;9.248;2023-09-19T08:38:11;21.40;99.90
7307;DHT22;3694;48.732;9.248;2023-09-19T08:40:39;21.30;99.90
7307;DHT22;3694;48.732;9.248;2023-09-19T08:43:06;21.60;99.90
7307;DHT22;3694;48.732;9.248;2023-09-19T08:45:33;21.10;99.40
7307;DHT22;3694;48.732;9.248;2023-09-19T08:48:22;21.20;99.50
7307;DHT22;3694;48.732;9.248;2023-09-19T08:50:55;21.00;99.50
7307;DHT22;3694;48.732;9.248;2023-09-19T08:53:31;21.20;99.60
7307;DHT22;3694;48.732;9.248;2023-09-19T08:56:00;20.70;98.70
7307;DHT22;3694;48.732;9.248;2023-09-19T08:58:31;20.30;98.70
7307;DHT22;3694;48.732;9.248;2023-09-19T09:01:00;19.80;98.70
7307;DHT22;3694;48.732;9.248;2023-09-19T09:03:29;19.70;99.00
7307;DHT22;3694;48.732;9.248;2023-09-19T09:05:57;19.80;99.40
7307;DHT22;3694;48.732;9.248;2023-09-19T09:08:24;19.70;99.20
7307;DHT22;3694;48.732;9.248;2023-09-19T09:10:50;20.00;99.00
7307;DHT22;3694;48.732;9.248;2023-09-19T09:13:17;20.30;98.80
7307;DHT22;3694;48.732;9.248;2023-09-19T09:15:43;20.60;99.00
7307;DHT22;3694;48.732;9.248;2023-09-19T09:18:10;20.70;98.60
7307;DHT22;3694;48.732;9.248;2023-09-19T09:20:36;20.60;98.50
7307;DHT22;3694;48.732;9.248;2023-09-19T09:23:01;20.90;98.20
7307;DHT22;3694;48.732;9.248;2023-09-19T09:28:21;20.70;98.00
7307;DHT22;3694;48.732;9.248;2023-09-19T09:30:47;20.60;98.10
7307;DHT22;3694;48.732;9.248;2023-09-19T09:33:14;20.80;98.20
7307;DHT22;3694;48.732;9.248;2023-09-19T09:36:07;20.60;97.90
7307;DHT22;3694;48.732;9.248;2023-09-19T09:38:45;21.00;97.60
7307;DHT22;3694;48.732;9.248;2023-09-19T09:41:11;21.00;97.60
7307;DHT22;3694;48.732;9.248;2023-09-19T09:43:41;21.20;97.30
7307;DHT22;3694;48.732;9.248;2023-09-19T09:46:16;21.40;97.30
7307;DHT22;3694;48.732;9.248;2023-09-19T09:51:44;22.20;96.40
7307;DHT22;3694;48.732;9.248;2023-09-19T09:54:23;23.00;96.40
7307;DHT22;3694;48.732;9.248;2023-09-19T09:56:59;23.10;95.90
7307;DHT22;3694;48.732;9.248;2023-09-19T09:59:48;23.40;94.80
7307;DHT22;3694;48.732;9.248;2023-09-19T10:02:20;22.70;93.10
7307;DHT22;3694;48.732;9.248;2023-09-19T10:04:54;22.50;92.90
7307;DHT22;3694;48.732;9.248;2023-09-19T10:07:47;21.90;92.80
7307;DHT22;3694;48.732;9.248;2023-09-19T10:13:03;22.20;93.20
7307;DHT22;3694;48.732;9.248;2023-09-19T10:15:32;22.30;92.60
7307;DHT22;3694;48.732;9.248;2023-09-19T10:18:00;22.20;92.10
7307;DHT22;3694;48.732;9.248;2023-09-19T10:20:28;22.20;92.10
7307;DHT22;3694;48.732;9.248;2023-09-19T10:23:05;21.70;92.40
7307;DHT22;3694;48.732;9.248;2023-09-19T10:25:37;21.80;92.10
7307;DHT22;3694;48.732;9.248;2023-09-19T10:28:02;22.00;91.90
7307;DHT22;3694;48.732;9.248;2023-09-19T10:30:33;21.70;92.20
7307;DHT22;3694;48.732;9.248;2023-09-19T10:33:04;22.00;92.20
7307;DHT22;3694;48.732;9.248;2023-09-19T10:35:32;21.90;91.80
7307;DHT22;3694;48.732;9.248;2023-09-19T10:38:00;21.80;91.50
7307;DHT22;3694;48.732;9.248;2023-09-19T10:40:29;21.50;91.30
7307;DHT22;3694;48.732;9.248;2023-09-19T10:43:04;21.40;91.60
7307;DHT22;3694;48.732;9.248;2023-09-19T10:45:34;21.20;91.50
7307;DHT22;3694;48.732;9.248;2023-09-19T10:48:01;21.50;91.70
7307;DHT22;3694;48.732;9.248;2023-09-19T10:50:46;21.50;92.20
7307;DHT22;3694;48.732;9.248;2023-09-19T10:53:16;22.00;91.90
7307;DHT22;3694;48.732;9.248;2023-09-19T10:55:52;22.00;91.50
7307;DHT22;3694;48.732;9.248;2023-09-19T10:58:31;22.00;91.00
7307;DHT22;3694;48.732;9.248;2023-09-19T11:01:00;22.00;91.30
7307;DHT22;3694;48.732;9.248;2023-09-19T11:03:33;21.80;91.30
7307;DHT22;3694;48.732;9.248;2023-09-19T11:06:23;22.00;91.10
7307;DHT22;3694;48.732;9.248;2023-09-19T11:09:00;22.20;91.30
7307;DHT22;3694;48.732;9.248;2023-09-19T11:11:42;22.40;91.00
7307;DHT22;3694;48.732;9.248;2023-09-19T11:30:43;22.10;91.00
7307;DHT22;3694;48.732;9.248;2023-09-19T11:33:20;22.30;91.00
7307;DHT22;3694;48.732;9.248;2023-09-19T11:36:10;22.40;90.70
7307;DHT22;3694;48.732;9.248;2023-09-19T11:46:24;21.90;90.70
7307;DHT22;3694;48.732;9.248;2023-09-19T11:48:51;21.70;90.60
7307;DHT22;3694;48.732;9.248;2023-09-19T11:51:18;21.80;91.30
7307;DHT22;3694;48.732;9.248;2023-09-19T11:53:49;21.70;90.80
7307;DHT22;3694;48.732;9.248;2023-09-19T11:56:19;22.40;91.20
7307;DHT22;3694;48.732;9.248;2023-09-19T11:58:46;22.30;90.90
7307;DHT22;3694;48.732;9.248;2023-09-19T12:01:20;22.40;90.80
7307;DHT22;3694;48.732;9.248;2023-09-19T12:03:47;22.60;90.50
7307;DHT22;3694;48.732;9.248;2023-09-19T12:06:18;22.70;90.80
7307;DHT22;3694;48.732;9.248;2023-09-19T12:08:44;22.50;90.80
7307;DHT22;3694;48.732;9.248;2023-09-19T12:11:13;22.20;90.40
7307;DHT22;3694;48.732;9.248;2023-09-19T12:13:43;22.30;90.90
7307;DHT22;3694;48.732;9.248;2023-09-19T12:16:20;22.30;91.00
7307;DHT22;3694;48.732;9.248;2023-09-19T12:18:50;22.50;90.80
7307;DHT22;3694;48.732;9.248;2023-09-19T12:21:31;22.60;90.90
7307;DHT22;3694;48.732;9.248;2023-09-19T12:26:23;23.50;91.00
7307;DHT22;3694;48.732;9.248;2023-09-19T12:28:50;23.50;90.50
7307;DHT22;3694;48.732;9.248;2023-09-19T12:31:18;23.40;90.10
7307;DHT22;3694;48.732;9.248;2023-09-19T12:33:45;23.00;90.40
7307;DHT22;3694;48.732;9.248;2023-09-19T12:36:22;22.90;90.20
7307;DHT22;3694;48.732;9.248;2023-09-19T12:38:54;23.20;90.50
7307;DHT22;3694;48.732;9.248;2023-09-19T12:41:20;23.20;90.50
7307;DHT22;3694;48.732;9.248;2023-09-19T12:43:47;23.30;90.80
7307;DHT22;3694;48.732;9.248;2023-09-19T12:46:13;23.20;90.30
7307;DHT22;3694;48.732;9.248;2023-09-19T12:48:40;23.10;90.40
7307;DHT22;3694;48.732;9.248;2023-09-19T12:51:10;22.80;90.20
7307;DHT22;3694;48.732;9.248;2023-09-19T12:53:40;22.90;90.90
7307;DHT22;3694;48.732;9.248;2023-09-19T12:56:11;23.20;90.80
7307;DHT22;3694;48.732;9.248;2023-09-19T12:59:08;23.10;90.10
7307;DHT22;3694;48.732;9.248;2023-09-19T13:01:37;23.00;90.00
7307;DHT22;3694;48.732;9.248;2023-09-19T13:04:21;22.80;90.20
7307;DHT22;3694;48.732;9.248;2023-09-19T13:06:55;22.90;90.30
7307;DHT22;3694;48.732;9.248;2023-09-19T13:09:26;22.90;90.70
7307;DHT22;3694;48.732;9.248;2023-09-19T13:12:04;23.00;89.90
7307;DHT22;3694;48.732;9.248;2023-09-19T13:14:32;23.00;90.40
7307;DHT22;3694;48.732;9.248;2023-09-19T13:17:04;23.10;90.20
7307;DHT22;3694;48.732;9.248;2023-09-19T13:19:50;22.80;90.30
7307;DHT22;3694;48.732;9.248;2023-09-19T13:22:42;23.00;90.20
7307;DHT22;3694;48.732;9.248;2023-09-19T13:25:18;22.90;90.40
7307;DHT22;3694;48.732;9.248;2023-09-19T13:27:48;22.80;90.40
7307;DHT22;3694;48.732;9.248;2023-09-19T13:30:16;22.50;90.60
7307;DHT22;3694;48.732;9.248;2023-09-19T13:32:42;22.40;90.40
7307;DHT22;3694;48.732;9.248;2023-09-19T13:35:09;22.50;91.00
7307;DHT22;3694;48.732;9.248;2023-09-19T13:37:35;22.60;90.70
7307;DHT22;3694;48.732;9.248;2023-09-19T13:40:03;22.50;90.10
7307;DHT22;3694;48.732;9.248;2023-09-19T13:42:30;22.60;90.40
7307;DHT22;3694;48.732;9.248;2023-09-19T13:44:57;22.50;90.40
7307;DHT22;3694;48.732;9.248;2023-09-19T13:47:22;22.40;89.20
7307;DHT22;3694;48.732;9.248;2023-09-19T13:49:50;22.40;89.70
7307;DHT22;3694;48.732;9.248;2023-09-19T13:52:19;22.40;90.10
7307;DHT22;3694;48.732;9.248;2023-09-19T13:54:45;22.40;89.80
7307;DHT22;3694;48.732;9.248;2023-09-19T13:57:11;22.50;90.50
7307;DHT22;3694;48.732;9.248;2023-09-19T13:59:36;22.80;90.20
7307;DHT22;3694;48.732;9.248;2023-09-19T14:02:02;22.70;89.20
7307;DHT22;3694;48.732;9.248;2023-09-19T14:04:31;22.50;89.40
7307;DHT22;3694;48.732;9.248;2023-09-19T14:06:57;22.70;90.20
7307;DHT22;3694;48.732;9.248;2023-09-19T14:09:23;22.50;89.30
7307;DHT22;3694;48.732;9.248;2023-09-19T14:11:50;22.60;90.00
7307;DHT22;3694;48.732;9.248;2023-09-19T14:14:18;22.60;88.90
7307;DHT22;3694;48.732;9.248;2023-09-19T14:16:44;22.50;88.10
7307;DHT22;3694;48.732;9.248;2023-09-19T14:19:09;22.20;88.40
7307;DHT22;3694;48.732;9.248;2023-09-19T14:21:35;22.40;88.60
7307;DHT22;3694;48.732;9.248;2023-09-19T14:24:02;22.60;88.30
7307;DHT22;3694;48.732;9.248;2023-09-19T14:26:28;22.60;88.80
7307;DHT22;3694;48.732;9.248;2023-09-19T14:28:54;22.70;88.50
7307;DHT22;3694;48.732;9.248;2023-09-19T14:31:20;22.50;87.80
7307;DHT22;3694;48.732;9.248;2023-09-19T14:33:52;22.40;88.50
7307;DHT22;3694;48.732;9.248;2023-09-19T14:36:18;22.30;88.60
7307;DHT22;3694;48.732;9.248;2023-09-19T14:38:44;22.10;88.60
7307;DHT22;3694;48.732;9.248;2023-09-19T14:41:10;21.90;88.50
7307;DHT22;3694;48.732;9.248;2023-09-19T14:43:35;21.90;89.70
7307;DHT22;3694;48.732;9.248;2023-09-19T14:46:05;21.80;89.10
7307;DHT22;3694;48.732;9.248;2023-09-19T14:48:33;21.90;90.00
7307;DHT22;3694;48.732;9.248;2023-09-19T14:51:06;22.00;88.80
7307;DHT22;3694;48.732;9.248;2023-09-19T14:53:34;22.20;88.70
7307;DHT22;3694;48.732;9.248;2023-09-19T14:56:02;22.30;88.60
7307;DHT22;3694;48.732;9.248;2023-09-19T14:58:29;22.30;87.20
7307;DHT22;3694;48.732;9.248;2023-09-19T15:01:09;22.20;86.60
7307;DHT22;3694;48.732;9.248;2023-09-19T15:03:40;22.00;87.00
7307;DHT22;3694;48.732;9.248;2023-09-19T15:06:07;22.10;88.10
7307;DHT22;3694;48.732;9.248;2023-09-19T15:08:35;21.80;88.70
7307;DHT22;3694;48.732;9.248;2023-09-19T15:11:08;22.10;88.40
7307;DHT22;3694;48.732;9.248;2023-09-19T15:13:34;22.10;89.10
7307;DHT22;3694;48.732;9.248;2023-09-19T15:16:04;22.00;88.50
7307;DHT22;3694;48.732;9.248;2023-09-19T15:18:34;21.80;88.50
7307;DHT22;3694;48.732;9.248;2023-09-19T15:21:07;21.80;89.40
7307;DHT22;3694;48.732;9.248;2023-09-19T15:23:33;21.80;88.20
7307;DHT22;3694;48.732;9.248;2023-09-19T15:26:06;21.70;87.00
7307;DHT22;3694;48.732;9.248;2023-09-19T15:28:33;21.50;87.10
7307;DHT22;3694;48.732;9.248;2023-09-19T15:31:00;21.50;87.40
7307;DHT22;3694;48.732;9.248;2023-09-19T15:33:26;21.60;86.80
7307;DHT22;3694;48.732;9.248;2023-09-19T15:36:03;21.30;87.10
7307;DHT22;3694;48.732;9.248;2023-09-19T15:38:30;21.30;87.30
7307;DHT22;3694;48.732;9.248;2023-09-19T15:40:57;21.20;87.10
7307;DHT22;3694;48.732;9.248;2023-09-19T15:43:23;21.20;87.70
7307;DHT22;3694;48.732;9.248;2023-09-19T15:45:49;21.10;87.80
7307;DHT22;3694;48.732;9.248;2023-09-19T15:48:15;21.10;88.10
7307;DHT22;3694;48.732;9.248;2023-09-19T15:50:41;21.10;88.70
7307;DHT22;3694;48.732;9.248;2023-09-19T15:53:07;21.10;88.60
7307;DHT22;3694;48.732;9.248;2023-09-19T15:55:39;21.10;88.30
7307;DHT22;3694;48.732;9.248;2023-09-19T15:58:05;21.20;88.60
7307;DHT22;3694;48.732;9.248;2023-09-19T16:00:32;21.00;88.20
7307;DHT22;3694;48.732;9.248;2023-09-19T16:03:02;20.90;89.20
7307;DHT22;3694;48.732;9.248;2023-09-19T16:05:28;20.80;89.30
7307;DHT22;3694;48.732;9.248;2023-09-19T16:07:53;20.80;89.20
7307;DHT22;3694;48.732;9.248;2023-09-19T16:10:19;20.70;88.30
7307;DHT22;3694;48.732;9.248;2023-09-19T16:12:46;20.60;88.90
7307;DHT22;3694;48.732;9.248;2023-09-19T16:15:11;20.50;88.50
7307;DHT22;3694;48.732;9.248;2023-09-19T16:17:38;20.40;88.50
7307;DHT22;3694;48.732;9.248;2023-09-19T16:20:05;20.40;89.00
7307;DHT22;3694;48.732;9.248;2023-09-19T16:22:38;20.30;88.60
7307;DHT22;3694;48.732;9.248;2023-09-19T16:25:05;20.30;88.90
7307;DHT22;3694;48.732;9.248;2023-09-19T16:27:31;20.30;89.00
7307;DHT22;3694;48.732;9.248;2023-09-19T16:29:56;20.20;88.80
7307;DHT22;3694;48.732;9.248;2023-09-19T16:32:22;20.30;89.40
7307;DHT22;3694;48.732;9.248;2023-09-19T16:34:47;20.20;89.60
7307;DHT22;3694;48.732;9.248;2023-09-19T16:37:13;20.00;90.30
7307;DHT22;3694;48.732;9.248;2023-09-19T16:39:42;20.00;90.50
7307;DHT22;3694;48.732;9.248;2023-09-19T16:42:08;19.90;90.10
7307;DHT22;3694;48.732;9.248;2023-09-19T16:44:35;19.90;90.20
7307;DHT22;3694;48.732;9.248;2023-09-19T16:47:00;19.80;90.30
7307;DHT22;3694;48.732;9.248;2023-09-19T16:49:28;19.80;90.30
7307;DHT22;3694;48.732;9.248;2023-09-19T16:51:55;19.60;90.50
7307;DHT22;3694;48.732;9.248;2023-09-19T16:54:20;19.50;90.70
7307;DHT22;3694;48.732;9.248;2023-09-19T16:56:46;19.40;90.70
7307;DHT22;3694;48.732;9.248;2023-09-19T16:59:12;19.30;90.90
7307;DHT22;3694;48.732;9.248;2023-09-19T17:01:38;19.10;91.10
7307;DHT22;3694;48.732;9.248;2023-09-19T17:04:04;19.10;91.40
7307;DHT22;3694;48.732;9.248;2023-09-19T17:06:31;18.90;91.50